createdAt,value
2018-08-06T00:00:34.212Z,79.90
2018-08-06T00:03:03.150Z,80.20
2018-08-06T00:05:31.977Z,80.30
2018-08-06T00:08:01.029Z,80.20
2018-08-06T00:10:29.958Z,80.30
2018-08-06T00:12:59.010Z,80.40
2018-08-06T00:15:27.800Z,80.60
2018-08-06T00:17:57.095Z,80.70
2018-08-06T00:20:25.869Z,80.80
2018-08-06T00:22:54.844Z,81.30
2018-08-06T00:25:23.804Z,81.60
2018-08-06T00:27:52.648Z,81.70
2018-08-06T00:30:22.199Z,81.70
2018-08-06T00:32:51.500Z,81.90
2018-08-06T00:35:20.515Z,81.90
2018-08-06T00:37:49.807Z,81.90
2018-08-06T00:40:20.388Z,81.90
2018-08-06T00:42:49.891Z,81.80
2018-08-06T00:45:20.234Z,82.50
2018-08-06T00:47:49.995Z,82.20
2018-08-06T00:50:18.858Z,82.30
2018-08-06T00:52:47.697Z,82.40
2018-08-06T00:55:19.054Z,82.40
2018-08-06T00:57:47.856Z,82.40
2018-08-06T01:00:18.030Z,82.30
2018-08-06T01:02:46.840Z,82.40
2018-08-06T01:05:16.268Z,82.60
2018-08-06T01:07:45.561Z,82.80
2018-08-06T01:10:15.654Z,82.80
2018-08-06T01:12:44.559Z,83.10
2018-08-06T01:15:15.361Z,82.80
2018-08-06T01:17:44.116Z,83.00
2018-08-06T01:22:42.933Z,83.40
2018-08-06T01:25:12.322Z,83.20
2018-08-06T01:27:41.084Z,83.30
2018-08-06T01:30:11.678Z,83.60
2018-08-06T01:32:40.492Z,83.50
2018-08-06T01:35:10.442Z,83.50
2018-08-06T01:37:39.639Z,83.60
2018-08-06T01:40:10.541Z,84.30
2018-08-06T01:42:39.808Z,84.00
2018-08-06T01:45:09.027Z,84.20
2018-08-06T01:47:38.561Z,84.30
2018-08-06T01:50:08.151Z,84.50
2018-08-06T01:55:05.802Z,84.60
2018-08-06T01:57:34.759Z,84.60
2018-08-06T02:00:04.610Z,84.40
2018-08-06T02:02:33.669Z,84.80
2018-08-06T02:05:02.513Z,85.20
2018-08-06T02:07:31.422Z,85.10
2018-08-06T02:10:00.325Z,85.20
2018-08-06T02:12:29.252Z,85.20
2018-08-06T02:14:58.206Z,85.90
2018-08-06T02:17:27.008Z,85.70
2018-08-06T02:22:24.170Z,86.70
2018-08-06T02:24:53.032Z,86.10
2018-08-06T02:27:21.918Z,86.40
2018-08-06T02:29:50.806Z,86.50
2018-08-06T02:32:19.587Z,86.90
2018-08-06T02:34:48.559Z,86.80
2018-08-06T02:37:17.516Z,87.20
2018-08-06T02:39:46.294Z,87.20
2018-08-06T02:42:15.146Z,88.00
2018-08-06T02:44:43.969Z,87.60
2018-08-06T02:47:12.881Z,87.80
2018-08-06T02:49:41.742Z,88.10
2018-08-06T02:52:10.580Z,88.30
2018-08-06T02:54:39.426Z,88.20
2018-08-06T02:57:08.315Z,88.30
2018-08-06T02:59:37.779Z,88.70
2018-08-06T03:02:06.619Z,88.80
2018-08-06T03:04:35.607Z,89.10
2018-08-06T03:07:04.596Z,89.20
2018-08-06T03:09:33.370Z,89.20
2018-08-06T03:12:02.281Z,89.60
2018-08-06T03:14:31.073Z,90.00
2018-08-06T03:16:59.995Z,90.10
2018-08-06T03:19:28.758Z,90.20
2018-08-06T03:21:57.644Z,90.30
2018-08-06T03:24:26.571Z,90.30
2018-08-06T03:26:55.407Z,90.30
2018-08-06T03:29:24.186Z,90.20
2018-08-06T03:31:52.945Z,90.00
2018-08-06T03:34:22.009Z,90.00
2018-08-06T03:36:52.104Z,90.00
2018-08-06T03:39:20.973Z,90.00
2018-08-06T03:41:49.927Z,90.00
2018-08-06T03:44:18.717Z,90.00
2018-08-06T03:46:47.492Z,90.00
2018-08-06T03:49:16.444Z,90.00
2018-08-06T03:51:45.117Z,90.00
2018-08-06T03:54:14.087Z,90.00
2018-08-06T03:56:43.023Z,90.00
2018-08-06T03:59:11.815Z,90.00
2018-08-06T04:01:40.641Z,90.00
2018-08-06T04:04:09.500Z,90.00
2018-08-06T04:06:38.243Z,90.00
2018-08-06T04:09:08.279Z,90.00
2018-08-06T04:11:37.048Z,90.00
2018-08-06T04:14:05.965Z,90.00
2018-08-06T04:16:40.088Z,90.10
2018-08-06T04:19:09.331Z,90.00
2018-08-06T04:21:38.437Z,89.90
2018-08-06T04:24:08.007Z,89.90
2018-08-06T04:26:37.479Z,89.80
2018-08-06T04:29:06.877Z,89.60
2018-08-06T04:31:36.405Z,89.70
2018-08-06T04:34:05.847Z,89.60
2018-08-06T04:39:04.743Z,89.20
2018-08-06T04:41:33.602Z,88.20
2018-08-06T04:44:02.512Z,87.30
2018-08-06T04:46:31.413Z,86.90
2018-08-06T04:49:00.432Z,86.40
2018-08-06T04:54:02.051Z,83.40
2018-08-06T04:56:30.867Z,82.80
2018-08-06T04:58:59.770Z,82.20
2018-08-06T05:01:28.674Z,81.40
2018-08-06T05:03:57.809Z,80.20
2018-08-06T05:06:28.774Z,79.20
2018-08-06T05:08:57.691Z,78.50
2018-08-06T05:11:26.529Z,77.70
2018-08-06T05:13:55.919Z,75.40
2018-08-06T05:16:24.905Z,72.50
2018-08-06T05:18:54.026Z,69.80
2018-08-06T05:21:22.887Z,66.60
2018-08-06T05:23:59.569Z,64.70
2018-08-06T05:26:29.475Z,62.60
2018-08-06T05:28:58.813Z,60.00
2018-08-06T05:31:28.733Z,58.10
2018-08-06T05:33:58.473Z,55.80
2018-08-06T05:36:27.285Z,55.40
2018-08-06T05:38:56.759Z,54.70
2018-08-06T05:41:26.685Z,54.90
2018-08-06T05:43:56.465Z,53.30
2018-08-06T05:46:25.600Z,53.90
2018-08-06T05:48:54.727Z,55.80
2018-08-06T05:51:23.475Z,54.20
2018-08-06T05:56:20.699Z,52.40
2018-08-06T05:58:49.514Z,52.00
2018-08-06T06:01:18.409Z,51.40
2018-08-06T06:03:47.353Z,53.20
2018-08-06T06:06:16.189Z,52.80
2018-08-06T06:08:45.050Z,51.50
2018-08-06T06:11:13.933Z,50.00
2018-08-06T06:13:42.772Z,49.20
2018-08-06T06:16:11.532Z,47.80
2018-08-06T06:18:40.271Z,46.00
2018-08-06T06:21:11.114Z,43.70
2018-08-06T06:23:39.873Z,44.30
2018-08-06T06:26:08.671Z,43.20
2018-08-06T06:28:37.482Z,43.40
2018-08-06T06:31:11.202Z,43.60
2018-08-06T06:33:40.143Z,43.10
2018-08-06T06:36:08.960Z,41.90
2018-08-06T06:38:37.752Z,42.10
2018-08-06T06:41:06.610Z,42.00
2018-08-06T06:43:35.552Z,43.90
2018-08-06T06:46:04.548Z,45.50
2018-08-06T06:48:33.333Z,46.80
2018-08-06T06:51:02.153Z,48.90
2018-08-06T06:53:30.936Z,49.10
2018-08-06T06:55:59.825Z,50.70
2018-08-06T06:58:28.580Z,51.30
2018-08-06T07:00:58.915Z,53.90
2018-08-06T07:03:27.778Z,52.80
2018-08-06T07:05:56.542Z,53.50
2018-08-06T07:08:25.347Z,54.50
2018-08-06T07:10:54.234Z,55.70
2018-08-06T07:13:23.223Z,56.40
2018-08-06T07:15:51.981Z,58.40
2018-08-06T07:18:20.876Z,56.00
2018-08-06T07:20:49.922Z,56.70
2018-08-06T07:23:18.782Z,58.40
2018-08-06T07:25:47.794Z,57.20
2018-08-06T07:28:16.665Z,57.20
2018-08-06T07:30:45.436Z,56.50
2018-08-06T07:33:14.355Z,56.70
2018-08-06T07:35:43.200Z,56.90
2018-08-06T07:38:12.111Z,57.10
2018-08-06T07:40:40.873Z,57.10
2018-08-06T07:43:10.422Z,59.00
2018-08-06T07:45:39.566Z,59.10
2018-08-06T07:48:08.714Z,58.90
2018-08-06T07:50:37.590Z,59.50
2018-08-06T07:53:07.251Z,58.70
2018-08-06T07:55:35.945Z,59.00
2018-08-06T07:58:05.059Z,56.20
2018-08-06T08:00:33.931Z,57.30
2018-08-06T08:03:02.751Z,56.30
2018-08-06T08:05:31.548Z,58.60
2018-08-06T08:08:00.437Z,57.60
2018-08-06T08:10:29.437Z,55.90
2018-08-06T08:12:58.219Z,56.00
2018-08-06T08:15:27.501Z,58.00
2018-08-06T08:17:58.063Z,59.60
2018-08-06T08:20:28.046Z,56.40
2018-08-06T08:22:56.823Z,57.90
2018-08-06T08:25:25.685Z,56.10
2018-08-06T08:27:54.572Z,55.70
2018-08-06T08:30:23.389Z,56.10
2018-08-06T08:32:52.238Z,55.90
2018-08-06T08:35:20.995Z,55.80
2018-08-06T08:37:49.753Z,56.30
2018-08-06T08:40:19.726Z,55.70
2018-08-06T08:42:48.603Z,55.40
2018-08-06T08:45:18.354Z,55.30
2018-08-06T08:47:47.210Z,55.50
2018-08-06T08:50:17.968Z,55.90
2018-08-06T08:52:46.839Z,56.20
2018-08-06T08:55:17.240Z,55.90
2018-08-06T08:57:46.268Z,56.10
2018-08-06T09:00:21.111Z,57.00
2018-08-06T09:02:50.912Z,55.20
2018-08-06T09:05:20.360Z,54.70
2018-08-06T09:07:50.188Z,54.30
2018-08-06T09:10:19.916Z,54.30
2018-08-06T09:12:49.043Z,54.10
2018-08-06T09:15:23.788Z,54.10
2018-08-06T09:17:52.694Z,53.70
2018-08-06T09:20:21.668Z,54.40
2018-08-06T09:22:50.546Z,52.00
2018-08-06T09:25:19.436Z,51.60
2018-08-06T09:27:49.698Z,51.10
2018-08-06T09:30:22.822Z,51.40
2018-08-06T09:32:56.825Z,54.20
2018-08-06T09:35:25.980Z,52.10
2018-08-06T09:37:55.186Z,51.40
2018-08-06T09:40:24.657Z,50.90
2018-08-06T09:42:53.910Z,51.50
2018-08-06T09:45:23.463Z,51.50
2018-08-06T09:47:53.482Z,51.20
2018-08-06T09:50:23.418Z,53.50
2018-08-06T09:52:53.291Z,50.20
2018-08-06T09:55:25.404Z,51.50
2018-08-06T09:57:54.632Z,51.10
2018-08-06T10:00:29.106Z,51.30
2018-08-06T10:02:59.478Z,50.70
2018-08-06T10:05:28.862Z,49.90
2018-08-06T10:07:57.692Z,49.80
2018-08-06T10:10:26.570Z,50.20
2018-08-06T10:12:55.382Z,49.60
2018-08-06T10:15:24.308Z,49.30
2018-08-06T10:17:54.474Z,50.70
2018-08-06T10:20:24.571Z,49.30
2018-08-06T10:22:53.484Z,50.40
2018-08-06T10:25:22.302Z,48.20
2018-08-06T10:27:51.065Z,48.30
2018-08-06T10:30:22.396Z,50.00
2018-08-06T10:32:51.530Z,47.00
2018-08-06T10:35:21.148Z,46.50
2018-08-06T10:37:50.134Z,48.40
2018-08-06T10:40:22.998Z,47.20
2018-08-06T10:42:52.230Z,47.10
2018-08-06T10:45:22.103Z,45.50
2018-08-06T10:50:20.316Z,46.10
2018-08-06T10:58:10.969Z,46.90
2018-08-06T11:00:39.865Z,49.90
2018-08-06T11:03:08.675Z,45.70
2018-08-06T11:05:37.489Z,46.90
2018-08-06T11:10:34.883Z,45.90
2018-08-06T11:13:03.724Z,43.60
2018-08-06T11:15:32.675Z,44.80
2018-08-06T11:18:01.440Z,43.50
2018-08-06T11:20:30.370Z,42.80
2018-08-06T11:22:59.114Z,42.40
2018-08-06T11:25:27.853Z,43.50
2018-08-06T11:27:56.671Z,46.00
2018-08-06T11:30:25.558Z,44.00
2018-08-06T11:32:55.145Z,44.40
2018-08-06T11:35:23.983Z,45.50
2018-08-06T11:37:52.993Z,45.10
2018-08-06T11:40:21.835Z,44.50
2018-08-06T11:42:50.959Z,43.90
2018-08-06T11:45:21.160Z,43.70
2018-08-06T11:47:50.242Z,43.00
2018-08-06T11:50:19.121Z,43.20
2018-08-06T11:52:48.025Z,44.30
2018-08-06T11:55:16.736Z,45.80
2018-08-06T11:57:46.334Z,43.60
2018-08-06T12:00:21.021Z,42.30
2018-08-06T12:02:49.883Z,44.30
2018-08-06T12:05:18.617Z,42.00
2018-08-06T12:07:48.054Z,36.60
2018-08-06T12:10:18.287Z,35.30
2018-08-06T12:12:48.076Z,30.80
2018-08-06T12:15:17.025Z,29.90
2018-08-06T12:17:46.143Z,28.50
2018-08-06T12:20:17.204Z,28.90
2018-08-06T12:22:47.466Z,27.60
2018-08-06T12:25:17.091Z,27.90
2018-08-06T12:27:46.800Z,28.30
2018-08-06T12:32:47.671Z,27.70
2018-08-06T12:35:17.070Z,29.20
2018-08-06T12:40:16.049Z,27.20
2018-08-06T12:42:44.991Z,26.70
2018-08-06T12:45:14.742Z,26.70
2018-08-06T12:47:44.174Z,26.10
2018-08-06T12:50:14.360Z,26.50
2018-08-06T12:52:43.773Z,26.40
2018-08-06T12:55:13.964Z,25.00
2018-08-06T12:57:43.342Z,25.20
2018-08-06T13:00:17.294Z,24.90
2018-08-06T13:02:46.907Z,25.60
2018-08-06T13:05:15.916Z,27.10
2018-08-06T13:07:44.824Z,28.00
2018-08-06T13:10:14.040Z,27.80
2018-08-06T13:12:42.951Z,27.20
2018-08-06T13:15:13.699Z,27.10
2018-08-06T13:17:42.611Z,28.90
2018-08-06T13:20:11.605Z,27.80
2018-08-06T13:22:40.455Z,27.10
2018-08-06T13:25:11.198Z,27.50
2018-08-06T13:27:40.018Z,29.60
2018-08-06T13:30:14.024Z,28.60
2018-08-06T13:32:43.518Z,29.20
2018-08-06T13:35:13.356Z,29.00
2018-08-06T13:37:42.311Z,28.50
2018-08-06T13:40:11.901Z,29.30
2018-08-06T13:42:40.769Z,28.50
2018-08-06T13:47:39.283Z,29.10
2018-08-06T13:50:09.025Z,28.00
2018-08-06T13:52:38.109Z,29.70
2018-08-06T13:55:08.641Z,29.90
2018-08-06T13:57:37.499Z,30.10
2018-08-06T14:00:09.519Z,29.30
2018-08-06T14:02:38.565Z,28.10
2018-08-06T14:05:08.653Z,28.90
2018-08-06T14:07:37.403Z,27.90
2018-08-06T14:10:07.629Z,29.20
2018-08-06T14:12:36.723Z,27.70
2018-08-06T14:15:07.158Z,28.80
2018-08-06T14:17:36.326Z,29.30
2018-08-06T14:20:06.366Z,27.60
2018-08-06T14:22:36.015Z,27.50
2018-08-06T14:25:05.614Z,26.90
2018-08-06T14:27:34.501Z,27.20
2018-08-06T14:30:03.516Z,27.30
2018-08-06T14:32:32.424Z,26.70
2018-08-06T14:35:01.335Z,25.30
2018-08-06T14:37:30.127Z,26.90
2018-08-06T14:39:58.846Z,25.30
2018-08-06T14:42:27.762Z,25.70
2018-08-06T14:44:57.157Z,26.40
2018-08-06T14:47:26.384Z,26.90
2018-08-06T14:49:55.153Z,27.30
2018-08-06T14:52:24.050Z,26.20
2018-08-06T14:54:52.848Z,26.80
2018-08-06T14:57:21.836Z,25.80
2018-08-06T14:59:50.736Z,26.40
2018-08-06T15:02:19.599Z,25.40
2018-08-06T15:04:48.353Z,27.10
2018-08-06T15:07:17.197Z,26.90
2018-08-06T15:12:15.407Z,27.00
2018-08-06T15:14:44.236Z,25.70
2018-08-06T15:17:13.112Z,24.80
2018-08-06T15:19:41.956Z,25.50
2018-08-06T15:24:39.413Z,25.30
2018-08-06T15:27:08.338Z,26.60
2018-08-06T15:29:37.340Z,25.40
2018-08-06T15:32:06.506Z,25.80
2018-08-06T15:34:35.341Z,25.70
2018-08-06T15:37:04.192Z,25.30
2018-08-06T15:39:33.169Z,24.20
2018-08-06T15:42:02.147Z,24.30
2018-08-06T15:44:31.070Z,24.90
2018-08-06T15:46:59.835Z,25.10
2018-08-06T15:49:28.915Z,24.60
2018-08-06T15:51:58.191Z,25.60
2018-08-06T15:54:27.012Z,24.70
2018-08-06T15:56:55.983Z,24.60
2018-08-06T15:59:24.890Z,25.60
2018-08-06T16:01:54.142Z,24.60
2018-08-06T16:04:22.933Z,25.20
2018-08-06T16:06:51.779Z,25.10
2018-08-06T16:09:20.873Z,25.80
2018-08-06T16:11:49.947Z,26.40
2018-08-06T16:14:18.777Z,26.90
2018-08-06T16:16:47.556Z,26.40
2018-08-06T16:19:16.410Z,26.60
2018-08-06T16:21:45.485Z,26.50
2018-08-06T16:24:14.287Z,26.90
2018-08-06T16:26:43.464Z,27.10
2018-08-06T16:29:12.250Z,28.10
2018-08-06T16:31:41.139Z,27.60
2018-08-06T16:34:09.922Z,28.00
2018-08-06T16:36:38.809Z,28.20
2018-08-06T16:41:37.620Z,28.40
2018-08-06T16:44:06.457Z,28.60
2018-08-06T16:46:40.893Z,28.60
2018-08-06T16:49:09.791Z,27.60
2018-08-06T16:51:38.643Z,28.10
2018-08-06T16:54:07.426Z,28.00
2018-08-06T16:56:36.318Z,27.80
2018-08-06T16:59:05.231Z,27.80
2018-08-06T17:01:34.098Z,28.60
2018-08-06T17:04:03.066Z,28.60
2018-08-06T17:06:31.923Z,29.00
2018-08-06T17:09:00.641Z,29.40
2018-08-06T17:11:29.483Z,29.60
2018-08-06T17:13:58.287Z,30.20
2018-08-06T17:16:27.327Z,30.70
2018-08-06T17:18:56.487Z,31.00
2018-08-06T17:21:25.380Z,30.60
2018-08-06T17:23:54.397Z,30.60
2018-08-06T17:26:23.253Z,31.40
2018-08-06T17:29:07.912Z,31.00
2018-08-06T17:31:36.792Z,31.30
2018-08-06T17:34:06.219Z,31.20
2018-08-06T17:36:35.095Z,30.70
2018-08-06T17:39:05.581Z,31.20
2018-08-06T17:41:34.365Z,31.60
2018-08-06T17:44:03.114Z,31.80
2018-08-06T17:46:32.258Z,32.20
2018-08-06T17:49:00.954Z,32.30
2018-08-06T17:51:29.792Z,33.50
2018-08-06T17:53:58.629Z,33.00
2018-08-06T17:56:27.499Z,33.50
2018-08-06T17:58:56.180Z,34.10
2018-08-06T18:01:25.315Z,34.30
2018-08-06T18:03:54.240Z,35.50
2018-08-06T18:06:23.115Z,34.80
2018-08-06T18:08:52.391Z,35.10
2018-08-06T18:11:21.263Z,36.70
2018-08-06T18:13:50.572Z,37.60
2018-08-06T18:16:19.465Z,38.50
2018-08-06T18:18:48.484Z,38.50
2018-08-06T18:21:17.470Z,38.70
2018-08-06T18:23:46.250Z,39.60
2018-08-06T18:26:14.993Z,40.00
2018-08-06T18:28:44.299Z,40.40
2018-08-06T18:31:13.127Z,40.60
2018-08-06T18:33:41.997Z,41.40
2018-08-06T18:36:11.111Z,41.60
2018-08-06T18:38:40.030Z,41.90
2018-08-06T18:41:08.842Z,42.60
2018-08-06T18:43:38.083Z,43.10
2018-08-06T18:46:07.243Z,44.20
2018-08-06T18:48:36.196Z,43.70
2018-08-06T18:51:05.046Z,44.60
2018-08-06T18:53:33.945Z,45.30
2018-08-06T18:56:02.870Z,45.40
2018-08-06T18:58:33.121Z,46.60
2018-08-06T19:01:02.046Z,45.60
2018-08-06T19:03:30.973Z,47.20
2018-08-06T19:05:59.868Z,48.00
2018-08-06T19:08:28.764Z,46.90
2018-08-06T19:11:01.307Z,47.00
2018-08-06T19:13:37.383Z,48.00
2018-08-06T19:16:06.665Z,47.60
2018-08-06T19:18:40.767Z,49.30
2018-08-06T19:21:09.680Z,48.50
2018-08-06T19:23:38.800Z,48.50
2018-08-06T19:26:08.168Z,49.00
2018-08-06T19:28:37.019Z,49.20
2018-08-06T19:31:11.127Z,50.20
2018-08-06T19:33:45.517Z,52.00
2018-08-06T19:36:14.420Z,52.40
2018-08-06T19:38:43.494Z,55.60
2018-08-06T19:41:12.355Z,57.30
2018-08-06T19:43:41.248Z,58.40
2018-08-06T19:46:10.297Z,60.00
2018-08-06T19:48:39.317Z,63.20
2018-08-06T19:51:08.659Z,66.40
2018-08-06T19:53:37.551Z,66.40
2018-08-06T19:56:12.375Z,68.00
2018-08-06T19:58:41.269Z,67.80
2018-08-06T20:01:10.093Z,70.00
2018-08-06T20:03:39.078Z,68.50
2018-08-06T20:06:08.524Z,68.30
2018-08-06T20:08:37.350Z,68.20
2018-08-06T20:11:06.678Z,68.70
2018-08-06T20:13:35.490Z,68.80
2018-08-06T20:16:05.347Z,67.90
2018-08-06T20:18:34.184Z,66.70
2018-08-06T20:21:03.078Z,67.00
2018-08-06T20:23:31.929Z,66.50
2018-08-06T20:26:00.817Z,65.40
2018-08-06T20:28:29.585Z,65.50
2018-08-06T20:30:58.374Z,65.90
2018-08-06T20:33:27.732Z,64.30
2018-08-06T20:35:56.691Z,63.90
2018-08-06T20:38:25.591Z,63.80
2018-08-06T20:41:07.706Z,64.10
2018-08-06T20:43:36.449Z,63.30
2018-08-06T20:46:05.333Z,62.80
2018-08-06T20:48:34.296Z,62.10
2018-08-06T20:51:03.123Z,62.80
2018-08-06T20:53:31.999Z,61.70
2018-08-06T20:56:00.877Z,61.70
2018-08-06T20:58:29.708Z,61.40
2018-08-06T21:00:58.679Z,62.10
2018-08-06T21:03:27.623Z,62.50
2018-08-06T21:08:25.039Z,63.00
2018-08-06T21:10:53.892Z,63.20
2018-08-06T21:13:22.770Z,62.10
2018-08-06T21:15:51.761Z,61.60
2018-08-06T21:18:20.582Z,62.30
2018-08-06T21:20:49.687Z,62.10
2018-08-06T21:23:18.607Z,62.00
2018-08-06T21:25:47.417Z,62.40
2018-08-06T21:28:16.315Z,62.70
2018-08-06T21:30:45.235Z,62.70
2018-08-06T21:33:14.330Z,62.60
2018-08-06T21:35:44.157Z,62.80
2018-08-06T21:38:13.021Z,63.50
2018-08-06T21:40:41.870Z,62.80
2018-08-06T21:43:10.650Z,64.40
2018-08-06T21:45:39.435Z,62.80
2018-08-06T21:48:08.274Z,63.40
2018-08-06T21:50:36.987Z,63.10
2018-08-06T21:53:05.675Z,63.10
2018-08-06T21:55:34.430Z,63.20
2018-08-06T21:58:03.194Z,63.20
2018-08-06T22:00:36.839Z,63.50
2018-08-06T22:03:10.479Z,63.90
2018-08-06T22:05:39.402Z,64.30
2018-08-06T22:08:08.342Z,63.80
2018-08-06T22:10:37.388Z,63.60
2018-08-06T22:13:06.877Z,64.80
2018-08-06T22:15:35.793Z,65.60
2018-08-06T22:18:05.009Z,64.80
2018-08-06T22:20:33.847Z,64.50
2018-08-06T22:23:02.642Z,64.20
2018-08-06T22:25:31.478Z,63.70
2018-08-06T22:28:00.441Z,63.80
2018-08-06T22:30:29.368Z,63.90
2018-08-06T22:32:58.234Z,64.20
2018-08-06T22:35:27.180Z,64.20
2018-08-06T22:37:56.228Z,64.00
2018-08-06T22:42:53.447Z,64.40
2018-08-06T22:45:22.220Z,64.40
2018-08-06T22:47:51.027Z,65.00
2018-08-06T22:50:20.088Z,64.40
2018-08-06T22:52:49.071Z,64.40
2018-08-06T22:55:17.963Z,64.90
2018-08-06T22:57:46.950Z,65.70
2018-08-06T23:00:16.938Z,66.40
2018-08-06T23:02:46.178Z,65.70
2018-08-06T23:05:16.782Z,66.10
2018-08-06T23:07:45.661Z,65.70
2018-08-06T23:10:17.363Z,66.20
2018-08-06T23:12:46.460Z,64.90
2018-08-06T23:15:16.409Z,64.90
2018-08-06T23:17:45.597Z,65.40
2018-08-06T23:20:14.552Z,65.40
2018-08-06T23:22:43.385Z,65.40
2018-08-06T23:25:12.387Z,65.50
2018-08-06T23:27:41.210Z,65.40
2018-08-06T23:30:12.855Z,65.70
2018-08-06T23:32:42.156Z,65.50
2018-08-06T23:35:13.238Z,66.70
2018-08-06T23:37:43.091Z,67.00
2018-08-06T23:40:12.674Z,67.00
2018-08-06T23:42:42.541Z,68.30
2018-08-06T23:45:13.501Z,67.60
2018-08-06T23:47:42.411Z,67.60
2018-08-06T23:50:13.219Z,68.30
2018-08-06T23:52:43.353Z,67.40
2018-08-06T23:55:13.607Z,67.60
2018-08-06T23:57:42.653Z,67.60
